createdAt,value
2022-11-24T00:00:15.376Z,28.7
2022-11-24T00:05:15.286Z,28.5
2022-11-24T00:10:18.445Z,28.4
2022-11-24T00:15:18.406Z,28.2
2022-11-24T00:20:19.467Z,28.1
2022-11-24T00:25:15.420Z,28.4
2022-11-24T00:30:18.429Z,28.3
2022-11-24T00:35:18.441Z,28.5
2022-11-24T00:40:15.431Z,28.4
2022-11-24T00:45:15.500Z,28.6
2022-11-24T00:50:18.474Z,28.5
2022-11-24T00:55:16.472Z,28.9
2022-11-24T01:00:18.471Z,28.8
2022-11-24T01:05:15.459Z,28.7
2022-11-24T01:10:18.431Z,29.0
2022-11-24T01:15:18.449Z,29.0
2022-11-24T01:20:15.420Z,29.0
2022-11-24T01:25:15.442Z,29.0
2022-11-24T01:30:19.554Z,29.3
2022-11-24T01:35:15.523Z,29.3
2022-11-24T01:40:18.489Z,29.3
2022-11-24T01:45:18.503Z,29.2
2022-11-24T01:50:18.460Z,29.1
2022-11-24T01:55:18.477Z,29.4
2022-11-24T02:00:18.479Z,29.3
2022-11-24T02:05:16.533Z,29.2
2022-11-24T02:10:15.534Z,29.5
2022-11-24T02:15:18.485Z,29.4
2022-11-24T02:20:15.477Z,29.3
2022-11-24T02:25:18.474Z,29.2
2022-11-24T02:30:15.497Z,29.1
2022-11-24T02:35:19.527Z,29.4
2022-11-24T02:40:15.318Z,29.2
2022-11-24T02:45:18.509Z,29.1
2022-11-24T02:50:18.477Z,29.0
2022-11-24T02:55:18.545Z,29.2
2022-11-24T03:00:18.460Z,29.0
2022-11-24T03:05:18.571Z,28.9
2022-11-24T03:10:19.535Z,28.9
2022-11-24T03:15:18.501Z,28.8
2022-11-24T03:20:18.530Z,28.7
2022-11-24T03:25:18.520Z,28.5
2022-11-24T03:30:18.530Z,28.4
2022-11-24T03:35:15.513Z,28.7
2022-11-24T03:40:18.547Z,28.5
2022-11-24T03:45:55.069Z,28.4
2022-11-24T03:50:18.463Z,28.3
2022-11-24T03:55:15.539Z,28.2
2022-11-24T04:00:15.335Z,28.5
2022-11-24T04:05:18.532Z,28.4
2022-11-24T04:10:18.531Z,28.3
2022-11-24T04:15:18.524Z,28.2
2022-11-24T04:20:16.345Z,28.2
2022-11-24T04:25:18.560Z,28.1
2022-11-24T04:30:15.547Z,27.9
2022-11-24T04:35:18.563Z,27.8
2022-11-24T04:40:18.579Z,27.7
2022-11-24T04:45:18.541Z,28.1
2022-11-24T04:50:19.410Z,27.5
2022-11-24T04:55:18.540Z,27.8
2022-11-24T05:00:19.797Z,27.8
2022-11-24T05:05:19.823Z,27.7
2022-11-24T05:10:19.815Z,27.6
2022-11-24T05:15:19.824Z,27.5
2022-11-24T05:20:20.859Z,27.4
2022-11-24T05:25:16.832Z,27.3
2022-11-24T05:30:19.835Z,27.2
2022-11-24T05:35:19.831Z,27.1
2022-11-24T05:40:16.865Z,27.0
2022-11-24T05:45:19.844Z,27.4
2022-11-24T05:50:16.876Z,27.3
2022-11-24T05:55:20.835Z,27.2
2022-11-24T06:00:19.848Z,27.2
2022-11-24T06:05:16.853Z,27.1
2022-11-24T06:10:19.915Z,26.6
2022-11-24T06:15:16.877Z,26.5
2022-11-24T06:20:16.723Z,26.8
2022-11-24T06:25:19.823Z,26.7
2022-11-24T06:30:17.923Z,26.6
2022-11-24T06:35:19.856Z,26.5
2022-11-24T06:40:16.851Z,26.4
2022-11-24T06:45:19.856Z,26.3
2022-11-24T06:50:16.871Z,26.2
2022-11-24T06:55:19.847Z,26.1
2022-11-24T07:00:16.843Z,26.0
2022-11-24T07:05:17.643Z,25.9
2022-11-24T07:10:19.834Z,25.9
2022-11-24T07:15:19.950Z,25.8
2022-11-24T07:20:19.878Z,25.7
2022-11-24T07:25:19.848Z,25.6
2022-11-24T07:30:19.863Z,25.5
2022-11-24T07:35:16.912Z,25.5
2022-11-24T07:40:20.904Z,25.7
2022-11-24T07:45:19.881Z,25.6
2022-11-24T07:50:19.854Z,25.5
2022-11-24T07:55:19.834Z,25.5
2022-11-24T08:00:19.906Z,25.5
2022-11-24T08:05:16.932Z,25.8
2022-11-24T08:10:19.911Z,25.7
2022-11-24T08:15:17.867Z,25.7
2022-11-24T08:20:16.684Z,25.7
2022-11-24T08:25:16.933Z,25.7
2022-11-24T08:30:19.922Z,25.7
2022-11-24T08:35:19.914Z,25.7
2022-11-24T08:40:19.873Z,25.7
2022-11-24T08:45:23.068Z,25.6
2022-11-24T08:50:19.902Z,25.6
2022-11-24T08:55:19.936Z,25.5
2022-11-24T09:00:16.925Z,25.4
2022-11-24T09:05:43.623Z,25.3
2022-11-24T09:10:16.985Z,25.2
2022-11-24T09:15:19.936Z,25.1
2022-11-24T09:20:17.820Z,25.0
2022-11-24T09:25:19.925Z,24.8
2022-11-24T09:30:16.937Z,24.7
2022-11-24T09:35:19.951Z,24.6
2022-11-24T09:40:16.979Z,24.4
2022-11-24T09:45:41.655Z,24.3
2022-11-24T09:50:16.944Z,24.1
2022-11-24T09:55:21.021Z,24.3
2022-11-24T10:00:20.020Z,24.1
2022-11-24T10:05:19.927Z,24.1
2022-11-24T10:10:24.848Z,24.1
2022-11-24T10:15:16.998Z,24.0
2022-11-24T10:20:20.005Z,23.9
2022-11-24T10:25:17.008Z,23.8
2022-11-24T10:30:21.021Z,23.8
2022-11-24T10:35:19.948Z,23.8
2022-11-24T10:40:33.483Z,24.0
2022-11-24T10:45:20.003Z,23.9
2022-11-24T10:50:16.989Z,23.9
2022-11-24T10:55:16.808Z,23.9
2022-11-24T11:00:16.937Z,23.8
2022-11-24T11:05:18.057Z,23.8
2022-11-24T11:10:19.975Z,23.7
2022-11-24T11:15:19.971Z,23.7
2022-11-24T11:20:20.032Z,23.7
2022-11-24T11:25:17.010Z,23.6
2022-11-24T11:31:30.923Z,23.5
2022-11-24T11:35:21.074Z,23.5
2022-11-24T11:40:19.961Z,23.5
2022-11-24T11:45:17.212Z,23.4
2022-11-24T11:50:20.017Z,23.3
2022-11-24T11:55:17.021Z,23.3
2022-11-24T12:00:20.049Z,23.2
2022-11-24T12:05:17.010Z,23.2
2022-11-24T12:10:21.073Z,23.2
2022-11-24T12:15:20.037Z,23.1
2022-11-24T12:20:16.837Z,23.1
2022-11-24T12:25:17.022Z,23.2
2022-11-24T12:30:20.023Z,23.2
2022-11-24T12:35:17.047Z,23.7
2022-11-24T12:40:20.035Z,23.8
2022-11-24T12:45:21.088Z,23.9
2022-11-24T12:50:17.030Z,24.1
2022-11-24T12:55:20.060Z,24.2
2022-11-24T13:00:20.062Z,24.4
2022-11-24T13:05:17.077Z,24.5
2022-11-24T13:10:26.350Z,24.7
2022-11-24T13:15:43.348Z,24.8
2022-11-24T13:20:21.084Z,24.9
2022-11-24T13:25:17.120Z,25.1
2022-11-24T13:30:20.202Z,25.3
2022-11-24T13:35:20.099Z,25.4
2022-11-24T13:40:17.068Z,25.6
2022-11-24T13:45:20.087Z,25.5
2022-11-24T13:50:16.884Z,25.6
2022-11-24T13:55:18.119Z,25.8
2022-11-24T14:00:20.086Z,26.0
2022-11-24T14:05:17.070Z,26.3
2022-11-24T14:10:20.045Z,26.5
2022-11-24T14:15:20.054Z,26.8
2022-11-24T14:20:16.890Z,27.1
2022-11-24T14:25:17.118Z,27.3
2022-11-24T14:30:21.150Z,27.2
2022-11-24T14:35:20.097Z,28.2
2022-11-24T14:40:20.068Z,27.9
2022-11-24T14:45:20.076Z,28.0
2022-11-24T14:50:20.153Z,28.0
2022-11-24T14:55:23.186Z,28.2
2022-11-24T15:00:17.078Z,28.7
2022-11-24T15:05:18.064Z,28.6
2022-11-24T15:10:20.095Z,28.8
2022-11-24T15:15:20.045Z,29.0
2022-11-24T15:20:20.087Z,28.6
2022-11-24T15:25:17.155Z,29.4
2022-11-24T15:30:20.087Z,29.3
2022-11-24T15:35:21.249Z,29.4
2022-11-24T15:40:17.199Z,29.7
2022-11-24T15:45:20.068Z,30.0
2022-11-24T15:50:20.057Z,29.7
2022-11-24T15:55:17.135Z,29.5
2022-11-24T16:00:20.085Z,29.3
2022-11-24T16:05:17.117Z,29.9
2022-11-24T16:10:21.157Z,30.9
2022-11-24T16:15:20.161Z,30.4
2022-11-24T16:20:17.135Z,29.4
2022-11-24T16:25:20.117Z,29.9
2022-11-24T16:30:20.115Z,29.4
2022-11-24T16:35:20.083Z,29.7
2022-11-24T16:40:20.124Z,29.5
2022-11-24T16:45:21.033Z,29.6
2022-11-24T16:50:20.123Z,29.9
2022-11-24T16:55:17.168Z,29.9
2022-11-24T17:00:20.174Z,30.0
2022-11-24T17:05:17.161Z,30.3
2022-11-24T17:10:20.179Z,30.1
2022-11-24T17:15:32.621Z,30.1
2022-11-24T17:20:21.122Z,30.4
2022-11-24T17:25:20.192Z,30.0
2022-11-24T17:30:20.114Z,30.5
2022-11-24T17:35:20.142Z,30.6
2022-11-24T17:40:32.383Z,31.1
2022-11-24T17:45:20.134Z,30.7
2022-11-24T17:50:25.346Z,30.3
2022-11-24T17:55:21.216Z,30.8
2022-11-24T18:00:20.154Z,30.7
2022-11-24T18:05:20.151Z,30.3
2022-11-24T18:10:20.170Z,30.3
2022-11-24T18:15:16.990Z,30.8
2022-11-24T18:20:17.011Z,30.7
2022-11-24T18:25:20.209Z,30.8
2022-11-24T18:30:21.189Z,30.7
2022-11-24T18:35:20.148Z,30.7
2022-11-24T18:40:20.127Z,30.4
2022-11-24T18:45:17.261Z,30.7
2022-11-24T18:50:20.501Z,31.0
2022-11-24T18:55:17.125Z,30.6
2022-11-24T19:00:17.241Z,30.8
2022-11-24T19:05:18.294Z,30.9
2022-11-24T19:10:20.189Z,31.0
2022-11-24T19:15:17.208Z,31.2
2022-11-24T19:20:20.209Z,31.1
2022-11-24T19:25:17.198Z,31.1
2022-11-24T19:30:20.232Z,31.3
2022-11-24T19:35:17.206Z,30.7
2022-11-24T19:40:18.353Z,31.1
2022-11-24T19:45:17.270Z,30.9
2022-11-24T19:50:20.224Z,30.9
2022-11-24T19:55:20.165Z,31.0
2022-11-24T20:00:20.203Z,31.1
2022-11-24T20:05:20.211Z,31.6
2022-11-24T20:10:17.256Z,31.4
2022-11-24T20:15:21.355Z,31.3
2022-11-24T20:20:20.235Z,31.3
2022-11-24T20:25:17.276Z,31.2
2022-11-24T20:30:20.229Z,31.7
2022-11-24T20:35:20.193Z,31.5
2022-11-24T20:40:20.251Z,31.4
2022-11-24T20:45:20.311Z,31.4
2022-11-24T20:50:18.213Z,31.5
2022-11-24T20:55:17.259Z,31.4
2022-11-24T21:00:20.237Z,31.9
2022-11-24T21:05:17.303Z,31.8
2022-11-24T21:10:20.257Z,31.7
2022-11-24T21:15:17.244Z,31.5
2022-11-24T21:20:21.401Z,31.4
2022-11-24T21:25:17.282Z,31.7
2022-11-24T21:30:20.238Z,31.6
2022-11-24T21:35:20.297Z,31.5
2022-11-24T21:40:20.233Z,31.7
2022-11-24T21:45:20.265Z,31.6
2022-11-24T21:50:17.277Z,31.9
2022-11-24T21:55:21.294Z,31.7
2022-11-24T22:00:17.257Z,31.6
2022-11-24T22:05:20.291Z,31.9
2022-11-24T22:10:17.318Z,31.7
2022-11-24T22:15:17.202Z,32.1
2022-11-24T22:20:20.277Z,32.5
2022-11-24T22:25:20.264Z,32.8
2022-11-24T22:30:21.321Z,32.7
2022-11-24T22:35:20.286Z,32.5
2022-11-24T22:40:20.267Z,32.8
2022-11-24T22:45:20.238Z,33.1
2022-11-24T22:50:20.291Z,33.3
2022-11-24T22:55:20.300Z,33.2
2022-11-24T23:00:20.236Z,33.5
2022-11-24T23:05:21.211Z,33.4
2022-11-24T23:10:20.265Z,33.8
2022-11-24T23:15:20.251Z,33.7
2022-11-24T23:20:17.353Z,33.9
2022-11-24T23:25:20.294Z,33.8
2022-11-24T23:30:20.290Z,34.1
2022-11-24T23:35:20.328Z,34.0
2022-11-24T23:40:21.340Z,34.3
2022-11-24T23:45:20.283Z,34.2
2022-11-24T23:50:20.271Z,34.2
2022-11-24T23:55:20.321Z,34.1
